createdAt,value
2019-01-18T00:00:41.539Z,-5.19
2019-01-18T00:01:45.757Z,-5.20
2019-01-18T00:02:50.094Z,-5.20
2019-01-18T00:03:54.382Z,-5.20
2019-01-18T00:04:58.678Z,-5.22
2019-01-18T00:06:03.111Z,-5.22
2019-01-18T00:07:07.332Z,-5.23
2019-01-18T00:08:11.530Z,-5.22
2019-01-18T00:09:15.813Z,-5.22
2019-01-18T00:10:20.015Z,-5.21
2019-01-18T00:11:24.248Z,-5.23
2019-01-18T00:12:28.545Z,-5.22
2019-01-18T00:13:32.812Z,-5.23
2019-01-18T00:14:37.215Z,-5.23
2019-01-18T00:15:41.573Z,-5.23
2019-01-18T00:16:45.943Z,-5.24
2019-01-18T00:17:50.240Z,-5.24
2019-01-18T00:18:54.506Z,-5.25
2019-01-18T00:19:58.787Z,-5.25
2019-01-18T00:21:03.121Z,-5.25
2019-01-18T00:22:07.408Z,-5.25
2019-01-18T00:23:11.826Z,-5.25
2019-01-18T00:24:16.207Z,-5.25
2019-01-18T00:25:20.508Z,-5.27
2019-01-18T00:26:24.757Z,-5.28
2019-01-18T00:27:29.035Z,-5.29
2019-01-18T00:28:33.507Z,-5.29
2019-01-18T00:29:37.766Z,-5.30
2019-01-18T00:30:42.094Z,-5.30
2019-01-18T00:31:46.379Z,-5.31
2019-01-18T00:32:50.714Z,-5.32
2019-01-18T00:33:55.024Z,-5.33
2019-01-18T00:34:59.328Z,-5.33
2019-01-18T00:36:03.504Z,-5.34
2019-01-18T00:37:07.738Z,-5.34
2019-01-18T00:38:12.012Z,-5.35
2019-01-18T00:39:16.391Z,-5.35
2019-01-18T00:40:20.622Z,-5.36
2019-01-18T00:41:24.932Z,-5.36
2019-01-18T00:42:29.292Z,-5.41
2019-01-18T00:43:33.464Z,-5.40
2019-01-18T00:44:37.897Z,-5.42
2019-01-18T00:45:42.179Z,-5.42
2019-01-18T00:46:46.362Z,-5.42
2019-01-18T00:47:50.708Z,-5.40
2019-01-18T00:48:54.908Z,-5.40
2019-01-18T00:49:59.177Z,-5.40
2019-01-18T00:51:03.391Z,-5.39
2019-01-18T00:52:07.743Z,-5.40
2019-01-18T00:53:11.953Z,-5.41
2019-01-18T00:54:16.113Z,-5.40
2019-01-18T00:55:20.498Z,-5.40
2019-01-18T00:56:24.732Z,-5.41
2019-01-18T00:57:29.077Z,-5.42
2019-01-18T00:58:33.374Z,-5.42
2019-01-18T00:59:37.709Z,-5.43
2019-01-18T01:00:48.414Z,-5.43
2019-01-18T01:01:52.630Z,-5.43
2019-01-18T01:02:56.941Z,-5.44
2019-01-18T01:04:01.099Z,-5.44
2019-01-18T01:05:05.550Z,-5.45
2019-01-18T01:06:09.849Z,-5.45
2019-01-18T01:07:14.086Z,-5.44
2019-01-18T01:08:18.470Z,-5.45
2019-01-18T01:09:22.688Z,-5.45
2019-01-18T01:10:27.005Z,-5.45
2019-01-18T01:11:31.229Z,-5.45
2019-01-18T01:12:35.540Z,-5.46
2019-01-18T01:13:39.738Z,-5.46
2019-01-18T01:14:44.010Z,-5.46
2019-01-18T01:15:48.373Z,-5.46
2019-01-18T01:16:52.787Z,-5.46
2019-01-18T01:17:57.038Z,-5.47
2019-01-18T01:19:01.249Z,-5.46
2019-01-18T01:20:06.115Z,-5.47
2019-01-18T01:21:10.407Z,-5.47
2019-01-18T01:22:14.722Z,-5.49
2019-01-18T01:23:19.078Z,-5.50
2019-01-18T01:24:23.207Z,-5.49
2019-01-18T01:25:27.650Z,-5.49
2019-01-18T01:26:32.073Z,-5.47
2019-01-18T01:27:36.364Z,-5.46
2019-01-18T01:28:40.646Z,-5.46
2019-01-18T01:29:44.898Z,-5.46
2019-01-18T01:30:49.082Z,-5.46
2019-01-18T01:31:53.375Z,-5.47
2019-01-18T01:32:57.757Z,-5.50
2019-01-18T01:34:01.990Z,-5.49
2019-01-18T01:35:06.411Z,-5.51
2019-01-18T01:36:10.753Z,-5.53
2019-01-18T01:37:15.014Z,-5.51
2019-01-18T01:38:19.383Z,-5.51
2019-01-18T01:39:23.555Z,-5.54
2019-01-18T01:40:29.004Z,-5.53
2019-01-18T01:41:33.392Z,-5.52
2019-01-18T01:42:37.941Z,-5.55
2019-01-18T01:43:42.147Z,-5.54
2019-01-18T01:44:46.328Z,-5.54
2019-01-18T01:45:50.643Z,-5.53
2019-01-18T01:46:54.835Z,-5.52
2019-01-18T01:47:59.024Z,-5.53
2019-01-18T01:49:03.358Z,-5.51
2019-01-18T01:50:09.656Z,-5.49
2019-01-18T01:51:13.888Z,-5.47
2019-01-18T01:52:18.238Z,-5.46
2019-01-18T01:53:22.417Z,-5.47
2019-01-18T01:54:26.785Z,-5.47
2019-01-18T01:55:31.031Z,-5.47
2019-01-18T01:56:35.352Z,-5.47
2019-01-18T01:57:39.663Z,-5.51
2019-01-18T01:58:43.967Z,-5.51
2019-01-18T01:59:49.880Z,-5.54
2019-01-18T02:00:52.648Z,-5.55
2019-01-18T02:01:56.891Z,-5.49
2019-01-18T02:03:01.175Z,-5.57
2019-01-18T02:04:05.550Z,-5.55
2019-01-18T02:05:09.783Z,-5.55
2019-01-18T02:06:14.121Z,-5.54
2019-01-18T02:07:18.288Z,-5.52
2019-01-18T02:08:22.596Z,-5.51
2019-01-18T02:09:26.743Z,-5.47
2019-01-18T02:10:31.184Z,-5.45
2019-01-18T02:11:35.561Z,-5.41
2019-01-18T02:12:39.730Z,-5.38
2019-01-18T02:13:43.968Z,-5.42
2019-01-18T02:14:48.136Z,-5.42
2019-01-18T02:15:52.497Z,-5.40
2019-01-18T02:16:56.679Z,-5.36
2019-01-18T02:18:00.964Z,-5.35
2019-01-18T02:19:05.203Z,-5.35
2019-01-18T02:20:11.295Z,-5.37
2019-01-18T02:21:15.631Z,-5.34
2019-01-18T02:22:19.966Z,-5.42
2019-01-18T02:23:24.180Z,-5.50
2019-01-18T02:24:28.405Z,-5.63
2019-01-18T02:25:32.658Z,-5.58
2019-01-18T02:26:36.680Z,-5.61
2019-01-18T02:27:40.778Z,-5.63
2019-01-18T02:28:45.103Z,-5.63
2019-01-18T02:29:49.296Z,-5.60
2019-01-18T02:30:53.627Z,-5.61
2019-01-18T02:31:57.852Z,-5.64
2019-01-18T02:33:02.134Z,-5.60
2019-01-18T02:34:06.405Z,-5.53
2019-01-18T02:35:10.853Z,-5.53
2019-01-18T02:36:15.051Z,-5.54
2019-01-18T02:37:19.380Z,-5.57
2019-01-18T02:38:23.631Z,-5.56
2019-01-18T02:39:28.141Z,-5.50
2019-01-18T02:40:32.468Z,-5.48
2019-01-18T02:41:36.865Z,-5.46
2019-01-18T02:42:41.097Z,-5.47
2019-01-18T02:43:45.415Z,-5.44
2019-01-18T02:44:49.689Z,-5.44
2019-01-18T02:45:54.075Z,-5.46
2019-01-18T02:46:58.625Z,-5.42
2019-01-18T02:48:02.835Z,-5.42
2019-01-18T02:49:07.173Z,-5.42
2019-01-18T02:50:11.705Z,-5.42
2019-01-18T02:51:15.888Z,-5.41
2019-01-18T02:52:20.202Z,-5.40
2019-01-18T02:53:24.506Z,-5.39
2019-01-18T02:54:28.697Z,-5.39
2019-01-18T02:55:33.016Z,-5.37
2019-01-18T02:56:37.305Z,-5.36
2019-01-18T02:57:41.716Z,-5.35
2019-01-18T02:58:45.934Z,-5.37
2019-01-18T02:59:50.332Z,-5.40
2019-01-18T03:00:54.719Z,-5.36
2019-01-18T03:01:59.034Z,-5.38
2019-01-18T03:03:03.472Z,-5.38
2019-01-18T03:04:07.676Z,-5.37
2019-01-18T03:05:12.595Z,-5.36
2019-01-18T03:06:16.926Z,-5.40
2019-01-18T03:07:21.200Z,-5.42
2019-01-18T03:08:25.725Z,-5.44
2019-01-18T03:09:29.939Z,-5.39
2019-01-18T03:10:34.254Z,-5.42
2019-01-18T03:11:38.553Z,-5.42
2019-01-18T03:12:42.870Z,-5.42
2019-01-18T03:13:47.186Z,-5.40
2019-01-18T03:14:51.519Z,-5.43
2019-01-18T03:15:55.761Z,-5.44
2019-01-18T03:17:00.196Z,-5.45
2019-01-18T03:18:04.483Z,-5.48
2019-01-18T03:19:08.825Z,-5.46
2019-01-18T03:20:14.015Z,-5.51
2019-01-18T03:21:18.249Z,-5.58
2019-01-18T03:22:22.419Z,-5.58
2019-01-18T03:23:26.763Z,-5.55
2019-01-18T03:24:31.324Z,-5.53
2019-01-18T03:25:35.964Z,-5.51
2019-01-18T03:26:40.215Z,-5.53
2019-01-18T03:27:44.487Z,-5.53
2019-01-18T03:28:48.842Z,-5.52
2019-01-18T03:29:53.074Z,-5.51
2019-01-18T03:30:57.232Z,-5.54
2019-01-18T03:32:01.538Z,-5.55
2019-01-18T03:33:05.957Z,-5.55
2019-01-18T03:34:10.238Z,-5.53
2019-01-18T03:35:15.782Z,-5.52
2019-01-18T03:36:19.986Z,-5.52
2019-01-18T03:37:24.346Z,-5.52
2019-01-18T03:38:28.579Z,-5.50
2019-01-18T03:39:32.706Z,-5.48
2019-01-18T03:40:36.940Z,-5.48
2019-01-18T03:41:47.752Z,-5.49
2019-01-18T03:42:52.454Z,-5.45
2019-01-18T03:43:56.583Z,-5.47
2019-01-18T03:45:00.817Z,-5.47
2019-01-18T03:46:05.183Z,-5.50
2019-01-18T03:47:09.533Z,-5.48
2019-01-18T03:48:13.803Z,-5.47
2019-01-18T03:49:18.138Z,-5.49
2019-01-18T03:50:24.304Z,-5.52
2019-01-18T03:51:28.511Z,-5.51
2019-01-18T03:52:32.803Z,-5.50
2019-01-18T03:53:37.112Z,-5.54
2019-01-18T03:54:41.416Z,-5.54
2019-01-18T03:55:45.780Z,-5.52
2019-01-18T03:56:50.084Z,-5.52
2019-01-18T03:57:54.251Z,-5.51
2019-01-18T03:58:58.527Z,-5.49
2019-01-18T04:00:02.957Z,-5.51
2019-01-18T04:01:07.174Z,-5.51
2019-01-18T04:02:11.528Z,-5.55
2019-01-18T04:03:15.771Z,-5.54
2019-01-18T04:04:20.103Z,-5.59
2019-01-18T04:05:24.417Z,-5.55
2019-01-18T04:06:28.685Z,-5.57
2019-01-18T04:07:33.090Z,-5.55
2019-01-18T04:08:37.473Z,-5.54
2019-01-18T04:09:41.732Z,-5.54
2019-01-18T04:10:45.949Z,-5.52
2019-01-18T04:11:50.271Z,-5.50
2019-01-18T04:12:54.443Z,-5.49
2019-01-18T04:13:58.870Z,-5.48
2019-01-18T04:15:03.082Z,-5.50
2019-01-18T04:16:07.388Z,-5.47
2019-01-18T04:17:11.468Z,-5.49
2019-01-18T04:18:15.898Z,-5.47
2019-01-18T04:19:20.096Z,-5.49
2019-01-18T04:20:24.431Z,-5.49
2019-01-18T04:21:28.699Z,-5.46
2019-01-18T04:22:33.035Z,-5.47
2019-01-18T04:23:37.260Z,-5.46
2019-01-18T04:24:41.575Z,-5.46
2019-01-18T04:25:45.938Z,-5.44
2019-01-18T04:26:50.306Z,-5.44
2019-01-18T04:27:54.461Z,-5.44
2019-01-18T04:28:58.885Z,-5.43
2019-01-18T04:30:03.174Z,-5.43
2019-01-18T04:31:07.682Z,-5.42
2019-01-18T04:32:11.910Z,-5.43
2019-01-18T04:33:16.234Z,-5.42
2019-01-18T04:34:20.448Z,-5.42
2019-01-18T04:35:24.842Z,-5.42
2019-01-18T04:36:29.003Z,-5.42
2019-01-18T04:37:33.252Z,-5.42
2019-01-18T04:38:37.561Z,-5.43
2019-01-18T04:39:41.791Z,-5.44
2019-01-18T04:40:45.960Z,-5.44
2019-01-18T04:41:50.368Z,-5.43
2019-01-18T04:42:54.643Z,-5.44
2019-01-18T04:43:58.859Z,-5.43
2019-01-18T04:45:03.312Z,-5.45
2019-01-18T04:46:07.631Z,-5.44
2019-01-18T04:47:11.785Z,-5.44
2019-01-18T04:48:16.128Z,-5.45
2019-01-18T04:49:20.318Z,-5.45
2019-01-18T04:50:25.896Z,-5.45
2019-01-18T04:51:30.191Z,-5.45
2019-01-18T04:52:34.364Z,-5.46
2019-01-18T04:53:38.590Z,-5.46
2019-01-18T04:54:42.857Z,-5.47
2019-01-18T04:55:47.269Z,-5.46
2019-01-18T04:56:51.685Z,-5.48
2019-01-18T04:57:56.033Z,-5.49
2019-01-18T04:59:00.205Z,-5.48
2019-01-18T05:00:05.832Z,-5.49
2019-01-18T05:01:10.302Z,-5.51
2019-01-18T05:02:14.489Z,-5.50
2019-01-18T05:03:18.807Z,-5.51
2019-01-18T05:04:23.151Z,-5.52
2019-01-18T05:05:27.430Z,-5.53
2019-01-18T05:06:31.827Z,-5.54
2019-01-18T05:07:36.136Z,-5.55
2019-01-18T05:08:40.506Z,-5.57
2019-01-18T05:09:44.770Z,-5.57
2019-01-18T05:10:49.051Z,-5.59
2019-01-18T05:11:53.552Z,-5.59
2019-01-18T05:12:57.906Z,-5.61
2019-01-18T05:14:02.155Z,-5.61
2019-01-18T05:15:08.255Z,-5.61
2019-01-18T05:16:12.479Z,-5.62
2019-01-18T05:17:16.863Z,-5.63
2019-01-18T05:18:21.084Z,-5.64
2019-01-18T05:19:25.286Z,-5.66
2019-01-18T05:20:29.546Z,-5.67
2019-01-18T05:21:33.892Z,-5.67
2019-01-18T05:22:38.259Z,-5.68
2019-01-18T05:23:42.597Z,-5.69
2019-01-18T05:24:49.516Z,-5.69
2019-01-18T05:25:51.220Z,-5.70
2019-01-18T05:26:55.500Z,-5.71
2019-01-18T05:27:59.948Z,-5.72
2019-01-18T05:29:04.103Z,-5.73
2019-01-18T05:30:15.832Z,-5.73
2019-01-18T05:31:20.111Z,-5.75
2019-01-18T05:32:24.331Z,-5.76
2019-01-18T05:33:28.699Z,-5.77
2019-01-18T05:34:33.122Z,-5.78
2019-01-18T05:35:37.459Z,-5.78
2019-01-18T05:36:41.752Z,-5.79
2019-01-18T05:37:46.147Z,-5.77
2019-01-18T05:38:50.434Z,-5.74
2019-01-18T05:39:54.891Z,-5.76
2019-01-18T05:40:59.174Z,-5.74
2019-01-18T05:42:03.528Z,-5.75
2019-01-18T05:43:07.751Z,-5.78
2019-01-18T05:44:12.299Z,-5.78
2019-01-18T05:45:17.966Z,-5.76
2019-01-18T05:46:22.265Z,-5.73
2019-01-18T05:47:26.598Z,-5.73
2019-01-18T05:48:30.930Z,-5.74
2019-01-18T05:49:35.258Z,-5.75
2019-01-18T05:50:39.776Z,-5.78
2019-01-18T05:51:44.035Z,-5.77
2019-01-18T05:52:48.478Z,-5.73
2019-01-18T05:53:52.963Z,-5.72
2019-01-18T05:54:57.374Z,-5.71
2019-01-18T05:56:01.655Z,-5.71
2019-01-18T05:57:05.797Z,-5.70
2019-01-18T05:58:10.064Z,-5.68
2019-01-18T05:59:14.290Z,-5.70
2019-01-18T06:00:26.923Z,-5.71
2019-01-18T06:01:31.166Z,-5.73
2019-01-18T06:02:35.536Z,-5.78
2019-01-18T06:03:39.727Z,-5.79
2019-01-18T06:04:44.103Z,-5.77
2019-01-18T06:05:48.504Z,-5.76
2019-01-18T06:06:52.931Z,-5.76
2019-01-18T06:07:57.162Z,-5.78
2019-01-18T06:09:01.239Z,-5.78
2019-01-18T06:10:06.305Z,-5.79
2019-01-18T06:11:10.532Z,-5.77
2019-01-18T06:12:14.717Z,-5.77
2019-01-18T06:13:18.886Z,-5.80
2019-01-18T06:14:23.108Z,-5.77
2019-01-18T06:15:27.563Z,-5.78
2019-01-18T06:16:31.854Z,-5.87
2019-01-18T06:17:36.141Z,-5.90
2019-01-18T06:18:40.349Z,-5.89
2019-01-18T06:19:44.467Z,-5.88
2019-01-18T06:20:48.879Z,-5.90
2019-01-18T06:21:53.208Z,-5.90
2019-01-18T06:22:57.492Z,-5.88
2019-01-18T06:24:01.741Z,-5.89
2019-01-18T06:25:06.152Z,-5.93
2019-01-18T06:26:10.499Z,-5.92
2019-01-18T06:27:14.844Z,-5.93
2019-01-18T06:28:18.985Z,-5.91
2019-01-18T06:29:23.253Z,-5.87
2019-01-18T06:30:27.395Z,-5.90
2019-01-18T06:31:31.728Z,-5.86
2019-01-18T06:32:36.087Z,-5.84
2019-01-18T06:33:40.464Z,-5.83
2019-01-18T06:34:44.718Z,-5.84
2019-01-18T06:35:49.064Z,-5.83
2019-01-18T06:36:53.242Z,-5.81
2019-01-18T06:37:57.490Z,-5.80
2019-01-18T06:39:01.900Z,-5.81
2019-01-18T06:40:07.754Z,-5.79
2019-01-18T06:41:24.911Z,-5.78
2019-01-18T06:42:29.254Z,-5.79
2019-01-18T06:43:33.436Z,-5.76
2019-01-18T06:44:37.663Z,-5.76
2019-01-18T06:45:41.853Z,-5.79
2019-01-18T06:46:46.030Z,-5.77
2019-01-18T06:47:50.315Z,-5.77
2019-01-18T06:48:55.534Z,-5.76
2019-01-18T06:49:59.820Z,-5.77
2019-01-18T06:51:04.118Z,-5.77
2019-01-18T06:52:08.438Z,-5.77
2019-01-18T06:53:18.919Z,-5.78
2019-01-18T06:54:23.021Z,-5.77
2019-01-18T06:55:27.198Z,-5.78
2019-01-18T06:56:32.543Z,-5.77
2019-01-18T06:57:35.871Z,-5.76
2019-01-18T06:58:40.230Z,-5.80
2019-01-18T06:59:44.432Z,-5.81
2019-01-18T07:00:48.724Z,-5.80
2019-01-18T07:01:53.041Z,-5.79
2019-01-18T07:02:57.264Z,-5.78
2019-01-18T07:04:01.506Z,-5.78
2019-01-18T07:05:05.867Z,-5.76
2019-01-18T07:06:10.076Z,-5.78
2019-01-18T07:07:14.226Z,-5.76
2019-01-18T07:08:18.463Z,-5.74
2019-01-18T07:09:22.881Z,-5.74
2019-01-18T07:10:27.214Z,-5.74
2019-01-18T07:11:31.473Z,-5.73
2019-01-18T07:12:35.706Z,-5.72
2019-01-18T07:13:40.041Z,-5.73
2019-01-18T07:14:44.439Z,-5.72
2019-01-18T07:15:48.707Z,-5.71
2019-01-18T07:16:53.059Z,-5.73
2019-01-18T07:17:57.258Z,-5.72
2019-01-18T07:19:01.495Z,-5.70
2019-01-18T07:20:05.979Z,-5.70
2019-01-18T07:21:10.279Z,-5.69
2019-01-18T07:22:14.516Z,-5.67
2019-01-18T07:23:18.829Z,-5.67
2019-01-18T07:24:23.071Z,-5.67
2019-01-18T07:25:29.325Z,-5.68
2019-01-18T07:26:33.679Z,-5.67
2019-01-18T07:27:37.867Z,-5.69
2019-01-18T07:28:42.213Z,-5.68
2019-01-18T07:29:46.485Z,-5.71
2019-01-18T07:30:50.861Z,-5.69
2019-01-18T07:31:55.178Z,-5.71
2019-01-18T07:32:59.406Z,-5.73
2019-01-18T07:34:03.723Z,-5.77
2019-01-18T07:35:08.542Z,-5.79
2019-01-18T07:36:12.293Z,-5.81
2019-01-18T07:37:16.642Z,-5.79
2019-01-18T07:38:20.868Z,-5.86
2019-01-18T07:39:25.120Z,-5.84
2019-01-18T07:40:29.487Z,-5.82
2019-01-18T07:41:33.846Z,-5.83
2019-01-18T07:42:38.173Z,-5.85
2019-01-18T07:43:42.524Z,-5.91
2019-01-18T07:44:46.770Z,-5.94
2019-01-18T07:45:51.011Z,-5.96
2019-01-18T07:46:55.223Z,-5.90
2019-01-18T07:47:59.516Z,-5.87
2019-01-18T07:49:03.804Z,-5.87
2019-01-18T07:50:09.139Z,-5.84
2019-01-18T07:51:13.477Z,-5.82
2019-01-18T07:52:17.822Z,-5.89
2019-01-18T07:53:22.096Z,-5.89
2019-01-18T07:54:26.260Z,-5.87
2019-01-18T07:55:30.615Z,-5.85
2019-01-18T07:56:34.904Z,-5.89
2019-01-18T07:57:39.295Z,-5.85
2019-01-18T07:58:43.619Z,-5.86
2019-01-18T07:59:47.848Z,-5.82
2019-01-18T08:00:52.052Z,-5.81
2019-01-18T08:01:56.255Z,-5.92
2019-01-18T08:03:00.596Z,-5.91
2019-01-18T08:04:04.882Z,-5.91
2019-01-18T08:05:09.883Z,-5.89
2019-01-18T08:06:14.197Z,-5.89
2019-01-18T08:07:18.521Z,-5.92
2019-01-18T08:08:22.635Z,-5.87
2019-01-18T08:09:26.926Z,-5.83
2019-01-18T08:10:31.198Z,-5.83
2019-01-18T08:11:35.561Z,-5.80
2019-01-18T08:12:39.767Z,-5.84
2019-01-18T08:13:44.073Z,-5.83
2019-01-18T08:14:48.212Z,-5.82
2019-01-18T08:15:52.586Z,-5.79
2019-01-18T08:16:56.731Z,-5.81
2019-01-18T08:18:01.140Z,-5.80
2019-01-18T08:19:05.535Z,-5.73
2019-01-18T08:20:12.390Z,-5.74
2019-01-18T08:21:16.671Z,-5.72
2019-01-18T08:22:20.998Z,-5.71
2019-01-18T08:23:25.256Z,-5.71
2019-01-18T08:24:29.639Z,-5.72
2019-01-18T08:25:33.898Z,-5.69
2019-01-18T08:26:38.206Z,-5.69
2019-01-18T08:27:42.757Z,-5.72
2019-01-18T08:28:48.546Z,-5.71
2019-01-18T08:29:51.457Z,-5.78
2019-01-18T08:30:55.749Z,-5.75
2019-01-18T08:31:59.963Z,-5.70
2019-01-18T08:33:04.266Z,-5.71
2019-01-18T08:34:08.587Z,-5.70
2019-01-18T08:35:14.028Z,-5.63
2019-01-18T08:36:18.295Z,-5.65
2019-01-18T08:37:22.628Z,-5.65
2019-01-18T08:38:26.899Z,-5.61
2019-01-18T08:39:31.305Z,-5.58
2019-01-18T08:40:37.882Z,-5.57
2019-01-18T08:41:42.122Z,-5.58
2019-01-18T08:42:46.309Z,-5.60
2019-01-18T08:43:50.681Z,-5.58
2019-01-18T08:44:54.997Z,-5.58
2019-01-18T08:46:01.612Z,-5.58
2019-01-18T08:47:05.946Z,-5.55
2019-01-18T08:48:10.283Z,-5.60
2019-01-18T08:49:14.637Z,-5.56
2019-01-18T08:50:18.810Z,-5.52
2019-01-18T08:51:23.195Z,-5.51
2019-01-18T08:52:27.433Z,-5.49
2019-01-18T08:53:31.870Z,-5.47
2019-01-18T08:54:36.108Z,-5.49
2019-01-18T08:55:40.432Z,-5.51
2019-01-18T08:56:44.761Z,-5.47
2019-01-18T08:57:49.051Z,-5.46
2019-01-18T08:58:53.391Z,-5.44
2019-01-18T08:59:57.703Z,-5.40
2019-01-18T09:01:02.007Z,-5.42
2019-01-18T09:02:06.301Z,-5.46
2019-01-18T09:03:10.514Z,-5.44
2019-01-18T09:04:14.844Z,-5.44
2019-01-18T09:05:21.094Z,-5.51
2019-01-18T09:06:25.393Z,-5.46
2019-01-18T09:07:29.697Z,-5.43
2019-01-18T09:08:33.910Z,-5.37
2019-01-18T09:09:38.191Z,-5.33
2019-01-18T09:10:42.519Z,-5.33
2019-01-18T09:11:46.861Z,-5.39
2019-01-18T09:12:51.191Z,-5.31
2019-01-18T09:13:55.423Z,-5.33
2019-01-18T09:14:59.865Z,-5.31
2019-01-18T09:16:04.129Z,-5.27
2019-01-18T09:17:08.501Z,-5.27
2019-01-18T09:18:12.819Z,-5.21
2019-01-18T09:19:17.108Z,-5.18
2019-01-18T09:20:23.950Z,-5.17
2019-01-18T09:21:28.156Z,-5.16
2019-01-18T09:22:32.472Z,-5.11
2019-01-18T09:23:36.719Z,-5.11
2019-01-18T09:24:40.890Z,-5.11
2019-01-18T09:25:45.407Z,-5.07
2019-01-18T09:26:49.764Z,-5.07
2019-01-18T09:27:54.126Z,-5.06
2019-01-18T09:28:58.431Z,-5.04
2019-01-18T09:30:02.804Z,-5.05
2019-01-18T09:31:07.038Z,-5.03
2019-01-18T09:32:11.246Z,-5.01
2019-01-18T09:33:15.509Z,-4.99
2019-01-18T09:34:19.939Z,-4.96
2019-01-18T09:35:25.259Z,-4.93
2019-01-18T09:36:29.607Z,-4.92
2019-01-18T09:37:33.891Z,-4.91
2019-01-18T09:38:38.231Z,-4.93
2019-01-18T09:39:42.712Z,-4.94
2019-01-18T09:40:46.955Z,-4.91
2019-01-18T09:41:51.258Z,-4.88
2019-01-18T09:42:55.558Z,-4.88
2019-01-18T09:43:59.828Z,-4.85
2019-01-18T09:45:04.290Z,-4.85
2019-01-18T09:46:08.503Z,-4.82
2019-01-18T09:47:12.762Z,-4.76
2019-01-18T09:48:17.099Z,-4.72
2019-01-18T09:49:21.296Z,-4.71
2019-01-18T09:50:27.763Z,-4.68
2019-01-18T09:51:32.032Z,-4.66
2019-01-18T09:52:36.301Z,-4.63
2019-01-18T09:53:40.550Z,-4.63
2019-01-18T09:54:44.910Z,-4.60
2019-01-18T09:55:49.231Z,-4.63
2019-01-18T09:56:53.510Z,-4.62
2019-01-18T09:57:57.794Z,-4.58
2019-01-18T09:59:02.140Z,-4.57
2019-01-18T10:00:10.246Z,-4.56
2019-01-18T10:01:14.487Z,-4.58
2019-01-18T10:02:18.848Z,-4.53
2019-01-18T10:03:23.147Z,-4.50
2019-01-18T10:04:27.423Z,-4.48
2019-01-18T10:05:32.344Z,-4.46
2019-01-18T10:06:36.597Z,-4.47
2019-01-18T10:07:40.875Z,-4.42
2019-01-18T10:08:45.239Z,-4.40
2019-01-18T10:09:49.832Z,-4.41
2019-01-18T10:10:54.124Z,-4.45
2019-01-18T10:11:58.358Z,-4.44
2019-01-18T10:13:02.661Z,-4.47
2019-01-18T10:14:06.840Z,-4.55
2019-01-18T10:15:13.750Z,-4.50
2019-01-18T10:16:18.025Z,-4.49
2019-01-18T10:17:22.471Z,-4.47
2019-01-18T10:18:26.950Z,-4.43
2019-01-18T10:19:31.218Z,-4.37
2019-01-18T10:20:35.667Z,-4.40
2019-01-18T10:21:39.847Z,-4.38
2019-01-18T10:22:44.492Z,-4.40
2019-01-18T10:23:48.772Z,-4.42
2019-01-18T10:24:53.088Z,-4.40
2019-01-18T10:25:57.356Z,-4.40
2019-01-18T10:27:01.702Z,-4.36
2019-01-18T10:28:06.089Z,-4.33
2019-01-18T10:29:10.283Z,-4.36
2019-01-18T10:30:16.940Z,-4.30
2019-01-18T10:31:21.120Z,-4.31
2019-01-18T10:32:25.427Z,-4.26
2019-01-18T10:33:29.603Z,-4.21
2019-01-18T10:34:33.980Z,-4.16
2019-01-18T10:35:38.196Z,-4.28
2019-01-18T10:36:42.495Z,-4.21
2019-01-18T10:37:46.712Z,-4.23
2019-01-18T10:38:51.224Z,-4.18
2019-01-18T10:39:55.669Z,-4.15
2019-01-18T10:40:59.850Z,-4.08
2019-01-18T10:42:04.188Z,-4.05
2019-01-18T10:43:08.503Z,-4.06
2019-01-18T10:44:12.823Z,-4.04
2019-01-18T10:45:17.147Z,-4.00
2019-01-18T10:46:21.444Z,-4.00
2019-01-18T10:47:25.755Z,-3.98
2019-01-18T10:48:29.974Z,-3.93
2019-01-18T10:49:34.314Z,-3.89
2019-01-18T10:50:38.696Z,-3.91
2019-01-18T10:51:42.948Z,-4.06
2019-01-18T10:52:47.314Z,-4.02
2019-01-18T10:53:51.741Z,-3.96
2019-01-18T10:54:56.298Z,-4.05
2019-01-18T10:56:00.619Z,-4.00
2019-01-18T10:57:05.019Z,-4.00
2019-01-18T10:58:09.339Z,-3.98
2019-01-18T10:59:13.592Z,-3.97
2019-01-18T11:00:21.996Z,-3.94
2019-01-18T11:01:26.220Z,-3.90
2019-01-18T11:02:30.664Z,-3.92
2019-01-18T11:03:34.871Z,-3.86
2019-01-18T11:04:39.174Z,-3.85
2019-01-18T11:05:43.532Z,-3.83
2019-01-18T11:06:47.867Z,-3.83
2019-01-18T11:07:52.182Z,-3.83
2019-01-18T11:08:56.566Z,-3.91
2019-01-18T11:10:00.782Z,-3.88
2019-01-18T11:11:05.259Z,-3.77
2019-01-18T11:12:09.502Z,-3.75
2019-01-18T11:13:13.812Z,-3.82
2019-01-18T11:14:18.037Z,-3.85
2019-01-18T11:15:24.179Z,-3.85
2019-01-18T11:16:28.428Z,-3.79
2019-01-18T11:17:32.718Z,-3.82
2019-01-18T11:18:36.893Z,-3.82
2019-01-18T11:19:41.227Z,-3.82
2019-01-18T11:20:57.478Z,-3.78
2019-01-18T11:22:01.966Z,-3.88
2019-01-18T11:23:06.286Z,-3.80
2019-01-18T11:24:10.535Z,-3.78
2019-01-18T11:25:14.807Z,-3.83
2019-01-18T11:26:19.127Z,-3.76
2019-01-18T11:27:23.704Z,-3.76
2019-01-18T11:28:27.858Z,-3.76
2019-01-18T11:29:32.184Z,-3.81
2019-01-18T11:30:36.484Z,-3.77
2019-01-18T11:31:40.813Z,-3.82
2019-01-18T11:32:45.130Z,-3.85
2019-01-18T11:33:49.403Z,-3.79
2019-01-18T11:34:53.682Z,-3.80
2019-01-18T11:35:57.932Z,-3.83
2019-01-18T11:37:02.250Z,-3.74
2019-01-18T11:38:06.622Z,-3.70
2019-01-18T11:39:10.924Z,-3.73
2019-01-18T11:40:18.109Z,-3.71
2019-01-18T11:41:22.403Z,-3.71
2019-01-18T11:42:26.767Z,-3.72
2019-01-18T11:43:31.072Z,-3.72
2019-01-18T11:44:35.287Z,-3.69
2019-01-18T11:45:39.540Z,-3.67
2019-01-18T11:46:43.880Z,-3.64
2019-01-18T11:47:48.173Z,-3.63
2019-01-18T11:48:52.533Z,-3.63
2019-01-18T11:49:56.809Z,-3.60
2019-01-18T11:51:01.121Z,-3.61
2019-01-18T11:52:05.319Z,-3.58
2019-01-18T11:53:09.667Z,-3.60
2019-01-18T11:54:14.084Z,-3.59
2019-01-18T11:55:18.312Z,-3.57
2019-01-18T11:56:22.511Z,-3.54
2019-01-18T11:57:26.817Z,-3.56
2019-01-18T11:58:31.148Z,-3.61
2019-01-18T11:59:35.483Z,-3.62
2019-01-18T12:00:39.774Z,-3.61
2019-01-18T12:01:44.062Z,-3.59
2019-01-18T12:02:48.155Z,-3.59
2019-01-18T12:03:52.467Z,-3.56
2019-01-18T12:04:56.812Z,-3.55
2019-01-18T12:06:01.075Z,-3.55
2019-01-18T12:07:05.425Z,-3.60
2019-01-18T12:08:09.694Z,-3.60
2019-01-18T12:09:13.948Z,-3.57
2019-01-18T12:10:21.418Z,-3.57
2019-01-18T12:11:25.707Z,-3.54
2019-01-18T12:12:29.945Z,-3.51
2019-01-18T12:13:34.212Z,-3.57
2019-01-18T12:14:38.468Z,-3.57
2019-01-18T12:15:42.872Z,-3.59
2019-01-18T12:16:47.147Z,-3.67
2019-01-18T12:17:51.490Z,-3.69
2019-01-18T12:18:55.775Z,-3.77
2019-01-18T12:20:00.184Z,-3.77
2019-01-18T12:21:04.542Z,-3.73
2019-01-18T12:22:08.775Z,-3.70
2019-01-18T12:23:12.925Z,-3.70
2019-01-18T12:24:18.064Z,-3.72
2019-01-18T12:25:21.661Z,-3.68
2019-01-18T12:26:25.925Z,-3.71
2019-01-18T12:27:30.247Z,-3.73
2019-01-18T12:28:34.563Z,-3.76
2019-01-18T12:29:38.971Z,-3.72
2019-01-18T12:30:43.264Z,-3.74
2019-01-18T12:31:47.632Z,-3.72
2019-01-18T12:32:51.871Z,-3.68
2019-01-18T12:33:56.201Z,-3.68
2019-01-18T12:35:00.421Z,-3.63
2019-01-18T12:36:04.724Z,-3.61
2019-01-18T12:37:09.018Z,-3.57
2019-01-18T12:38:13.323Z,-3.59
2019-01-18T12:39:17.547Z,-3.59
2019-01-18T12:40:21.824Z,-3.58
2019-01-18T12:41:26.160Z,-3.59
2019-01-18T12:42:30.343Z,-3.54
2019-01-18T12:43:34.679Z,-3.50
2019-01-18T12:44:38.959Z,-3.45
2019-01-18T12:45:43.287Z,-3.45
2019-01-18T12:46:47.363Z,-3.37
2019-01-18T12:47:51.744Z,-3.35
2019-01-18T12:48:56.124Z,-3.36
2019-01-18T12:50:00.286Z,-3.35
2019-01-18T12:51:04.736Z,-3.40
2019-01-18T12:52:09.069Z,-3.36
2019-01-18T12:53:13.378Z,-3.36
2019-01-18T12:54:17.653Z,-3.32
2019-01-18T12:55:21.999Z,-3.32
2019-01-18T12:56:26.339Z,-3.28
2019-01-18T12:57:30.739Z,-3.32
2019-01-18T12:58:34.994Z,-3.28
2019-01-18T12:59:39.295Z,-3.29
2019-01-18T13:00:43.625Z,-3.29
2019-01-18T13:01:47.690Z,-3.28
2019-01-18T13:02:52.067Z,-3.25
2019-01-18T13:03:56.383Z,-3.23
2019-01-18T13:05:00.780Z,-3.21
2019-01-18T13:06:05.081Z,-3.20
2019-01-18T13:07:09.355Z,-3.18
2019-01-18T13:08:13.660Z,-3.19
2019-01-18T13:09:17.890Z,-3.17
2019-01-18T13:10:22.163Z,-3.19
2019-01-18T13:11:26.406Z,-3.18
2019-01-18T13:12:30.666Z,-3.19
2019-01-18T13:13:34.968Z,-3.16
2019-01-18T13:14:39.291Z,-3.12
2019-01-18T13:15:49.769Z,-3.25
2019-01-18T13:16:53.931Z,-3.25
2019-01-18T13:17:58.228Z,-3.24
2019-01-18T13:19:06.801Z,-3.24
2019-01-18T13:20:11.251Z,-3.26
2019-01-18T13:21:15.602Z,-3.30
2019-01-18T13:22:19.826Z,-3.31
2019-01-18T13:23:24.144Z,-3.29
2019-01-18T13:24:28.635Z,-3.29
2019-01-18T13:25:32.921Z,-3.27
2019-01-18T13:26:37.198Z,-3.30
2019-01-18T13:27:41.872Z,-3.34
2019-01-18T13:28:46.053Z,-3.35
2019-01-18T13:29:50.422Z,-3.35
2019-01-18T13:30:54.718Z,-3.43
2019-01-18T13:31:58.955Z,-3.41
2019-01-18T13:33:03.307Z,-3.48
2019-01-18T13:34:07.712Z,-3.50
2019-01-18T13:35:11.948Z,-3.51
2019-01-18T13:36:16.825Z,-3.51
2019-01-18T13:37:21.684Z,-3.49
2019-01-18T13:38:26.339Z,-3.45
2019-01-18T13:39:31.048Z,-3.43
2019-01-18T13:40:35.435Z,-3.43
2019-01-18T13:41:40.275Z,-3.41
2019-01-18T13:42:44.710Z,-3.64
2019-01-18T13:43:49.285Z,-3.55
2019-01-18T13:44:53.939Z,-3.54
2019-01-18T13:45:58.888Z,-3.53
2019-01-18T13:47:03.533Z,-3.56
2019-01-18T13:48:08.483Z,-3.54
2019-01-18T13:49:13.159Z,-3.55
2019-01-18T13:50:18.612Z,-3.54